Terminal Aerodrome Forecast
Issued by NWS

Home | Current Version | Previous Version | Text Only | Print | Product List | Glossary On
Versions: 1 2 3 4 5 6 7 8 9 10 11 12 13 14 15 16 17 18 19 20 21 22 23 24 25
000
FTUS46 KEKA 201132
TAFCEC
TAF
KCEC 201132Z 2012/2112 36010G20KT 6SM FU OVC050
     FM201800 34020G30KT 6SM FU OVC050
     FM210100 34010G20KT 6SM FU OVC050
     FM210700 VRB05KT 3SM FU BKN010 OVC050=

USA.gov is the U.S. government's official web portal to all federal, state and local government web resources and services.